sensor_id;sensor_type;location;lat;lon;timestamp;temperature;humidity
71047;SHT31;58703;48.978;8.982;2022-09-17T00:00:38;9.39;93.63
71047;SHT31;58703;48.978;8.982;2022-09-17T00:03:04;9.45;93.56
71047;SHT31;58703;48.978;8.982;2022-09-17T00:05:30;9.50;93.10
71047;SHT31;58703;48.978;8.982;2022-09-17T00:07:56;9.58;92.68
71047;SHT31;58703;48.978;8.982;2022-09-17T00:10:22;9.67;92.16
71047;SHT31;58703;48.978;8.982;2022-09-17T00:12:49;9.73;91.50
71047;SHT31;58703;48.978;8.982;2022-09-17T00:15:15;9.69;91.41
71047;SHT31;58703;48.978;8.982;2022-09-17T00:17:42;9.72;91.33
71047;SHT31;58703;48.978;8.982;2022-09-17T00:20:08;9.63;91.98
71047;SHT31;58703;48.978;8.982;2022-09-17T00:22:38;9.50;92.49
71047;SHT31;58703;48.978;8.982;2022-09-17T00:25:04;9.34;93.18
71047;SHT31;58703;48.978;8.982;2022-09-17T00:27:31;9.25;93.66
71047;SHT31;58703;48.978;8.982;2022-09-17T00:29:57;9.12;94.28
71047;SHT31;58703;48.978;8.982;2022-09-17T00:32:23;9.15;93.96
71047;SHT31;58703;48.978;8.982;2022-09-17T00:34:50;9.18;93.70
71047;SHT31;58703;48.978;8.982;2022-09-17T00:37:20;9.12;94.07
71047;SHT31;58703;48.978;8.982;2022-09-17T00:39:46;9.21;94.06
71047;SHT31;58703;48.978;8.982;2022-09-17T00:42:12;9.11;94.39
71047;SHT31;58703;48.978;8.982;2022-09-17T00:44:51;9.15;94.41
71047;SHT31;58703;48.978;8.982;2022-09-17T00:47:36;9.10;94.76
71047;SHT31;58703;48.978;8.982;2022-09-17T00:50:31;9.15;94.32
71047;SHT31;58703;48.978;8.982;2022-09-17T00:53:04;9.22;94.23
71047;SHT31;58703;48.978;8.982;2022-09-17T00:55:38;9.25;94.27
71047;SHT31;58703;48.978;8.982;2022-09-17T00:58:07;9.36;93.74
71047;SHT31;58703;48.978;8.982;2022-09-17T01:00:34;9.48;93.17
71047;SHT31;58703;48.978;8.982;2022-09-17T01:03:01;9.43;93.34
71047;SHT31;58703;48.978;8.982;2022-09-17T01:05:52;9.36;93.63
71047;SHT31;58703;48.978;8.982;2022-09-17T01:13:56;9.32;93.64
71047;SHT31;58703;48.978;8.982;2022-09-17T01:16:39;9.36;93.74
71047;SHT31;58703;48.978;8.982;2022-09-17T01:22:02;9.38;94.01
71047;SHT31;58703;48.978;8.982;2022-09-17T01:27:43;9.49;93.23
71047;SHT31;58703;48.978;8.982;2022-09-17T01:30:34;9.62;92.63
71047;SHT31;58703;48.978;8.982;2022-09-17T01:33:23;9.69;92.18
71047;SHT31;58703;48.978;8.982;2022-09-17T01:36:10;9.62;92.58
71047;SHT31;58703;48.978;8.982;2022-09-17T01:38:57;9.56;92.47
71047;SHT31;58703;48.978;8.982;2022-09-17T01:47:30;9.40;92.53
71047;SHT31;58703;48.978;8.982;2022-09-17T01:50:15;9.36;92.47
71047;SHT31;58703;48.978;8.982;2022-09-17T01:52:43;9.35;92.60
71047;SHT31;58703;48.978;8.982;2022-09-17T01:55:14;9.31;92.77
71047;SHT31;58703;48.978;8.982;2022-09-17T01:57:49;9.29;92.45
71047;SHT31;58703;48.978;8.982;2022-09-17T02:00:17;9.48;91.36
71047;SHT31;58703;48.978;8.982;2022-09-17T02:02:51;9.50;91.64
71047;SHT31;58703;48.978;8.982;2022-09-17T02:05:28;9.48;91.57
71047;SHT31;58703;48.978;8.982;2022-09-17T02:08:09;9.49;91.19
71047;SHT31;58703;48.978;8.982;2022-09-17T02:10:44;9.40;91.73
71047;SHT31;58703;48.978;8.982;2022-09-17T02:13:26;9.31;91.85
71047;SHT31;58703;48.978;8.982;2022-09-17T02:16:00;9.21;92.65
71047;SHT31;58703;48.978;8.982;2022-09-17T02:18:41;9.19;92.47
71047;SHT31;58703;48.978;8.982;2022-09-17T02:21:15;9.15;92.45
71047;SHT31;58703;48.978;8.982;2022-09-17T02:23:54;9.16;92.21
71047;SHT31;58703;48.978;8.982;2022-09-17T02:26:23;9.03;92.86
71047;SHT31;58703;48.978;8.982;2022-09-17T02:28:59;9.04;92.80
71047;SHT31;58703;48.978;8.982;2022-09-17T02:31:28;9.04;92.65
71047;SHT31;58703;48.978;8.982;2022-09-17T02:33:59;8.97;93.07
71047;SHT31;58703;48.978;8.982;2022-09-17T02:36:26;9.00;92.93
71047;SHT31;58703;48.978;8.982;2022-09-17T02:39:02;8.94;93.04
71047;SHT31;58703;48.978;8.982;2022-09-17T02:41:43;8.94;93.17
71047;SHT31;58703;48.978;8.982;2022-09-17T02:47:41;8.74;93.85
71047;SHT31;58703;48.978;8.982;2022-09-17T02:59:32;8.46;95.28
71047;SHT31;58703;48.978;8.982;2022-09-17T03:02:03;8.53;94.86
71047;SHT31;58703;48.978;8.982;2022-09-17T03:04:31;8.57;94.62
71047;SHT31;58703;48.978;8.982;2022-09-17T03:06:59;8.57;94.62
71047;SHT31;58703;48.978;8.982;2022-09-17T03:09:30;8.60;94.61
71047;SHT31;58703;48.978;8.982;2022-09-17T03:11:56;8.59;94.56
71047;SHT31;58703;48.978;8.982;2022-09-17T03:14:21;8.56;94.70
71047;SHT31;58703;48.978;8.982;2022-09-17T03:16:47;8.57;94.68
71047;SHT31;58703;48.978;8.982;2022-09-17T03:19:14;8.59;94.80
71047;SHT31;58703;48.978;8.982;2022-09-17T03:21:39;8.61;94.56
71047;SHT31;58703;48.978;8.982;2022-09-17T03:24:05;8.68;94.24
71047;SHT31;58703;48.978;8.982;2022-09-17T03:26:30;8.59;94.54
71047;SHT31;58703;48.978;8.982;2022-09-17T03:28:57;8.47;95.13
71047;SHT31;58703;48.978;8.982;2022-09-17T03:31:23;8.36;95.61
71047;SHT31;58703;48.978;8.982;2022-09-17T03:33:48;8.36;95.58
71047;SHT31;58703;48.978;8.982;2022-09-17T03:36:14;8.29;95.90
71047;SHT31;58703;48.978;8.982;2022-09-17T03:38:40;8.13;96.20
71047;SHT31;58703;48.978;8.982;2022-09-17T03:41:05;8.07;96.82
71047;SHT31;58703;48.978;8.982;2022-09-17T03:43:32;8.03;97.19
71047;SHT31;58703;48.978;8.982;2022-09-17T03:45:58;8.07;97.11
71047;SHT31;58703;48.978;8.982;2022-09-17T03:48:24;8.05;96.63
71047;SHT31;58703;48.978;8.982;2022-09-17T03:50:50;8.13;96.75
71047;SHT31;58703;48.978;8.982;2022-09-17T03:53:17;8.33;95.87
71047;SHT31;58703;48.978;8.982;2022-09-17T03:55:42;8.56;95.07
71047;SHT31;58703;48.978;8.982;2022-09-17T03:58:08;8.67;94.79
71047;SHT31;58703;48.978;8.982;2022-09-17T04:00:34;8.94;93.60
71047;SHT31;58703;48.978;8.982;2022-09-17T04:03:04;9.07;93.48
71047;SHT31;58703;48.978;8.982;2022-09-17T04:05:32;9.19;92.99
71047;SHT31;58703;48.978;8.982;2022-09-17T04:07:58;9.22;92.95
71047;SHT31;58703;48.978;8.982;2022-09-17T04:10:24;9.16;93.43
71047;SHT31;58703;48.978;8.982;2022-09-17T04:12:50;9.14;93.69
71047;SHT31;58703;48.978;8.982;2022-09-17T04:15:15;9.16;93.76
71047;SHT31;58703;48.978;8.982;2022-09-17T04:17:41;9.11;93.84
71047;SHT31;58703;48.978;8.982;2022-09-17T04:20:07;9.07;93.94
71047;SHT31;58703;48.978;8.982;2022-09-17T04:22:32;9.00;93.90
71047;SHT31;58703;48.978;8.982;2022-09-17T04:24:58;8.87;94.59
71047;SHT31;58703;48.978;8.982;2022-09-17T04:27:23;8.85;94.75
71047;SHT31;58703;48.978;8.982;2022-09-17T04:29:49;8.77;95.00
71047;SHT31;58703;48.978;8.982;2022-09-17T04:32:16;8.73;94.90
71047;SHT31;58703;48.978;8.982;2022-09-17T04:34:41;8.70;95.16
71047;SHT31;58703;48.978;8.982;2022-09-17T04:37:07;8.63;95.40
71047;SHT31;58703;48.978;8.982;2022-09-17T04:39:33;8.54;95.69
71047;SHT31;58703;48.978;8.982;2022-09-17T04:41:58;8.52;95.79
71047;SHT31;58703;48.978;8.982;2022-09-17T04:44:24;8.53;95.84
71047;SHT31;58703;48.978;8.982;2022-09-17T04:46:50;8.54;95.73
71047;SHT31;58703;48.978;8.982;2022-09-17T04:49:15;8.53;95.63
71047;SHT31;58703;48.978;8.982;2022-09-17T04:51:41;8.52;95.85
71047;SHT31;58703;48.978;8.982;2022-09-17T04:54:08;8.54;95.46
71047;SHT31;58703;48.978;8.982;2022-09-17T04:56:34;8.54;95.37
71047;SHT31;58703;48.978;8.982;2022-09-17T04:59:01;8.57;95.06
71047;SHT31;58703;48.978;8.982;2022-09-17T05:01:27;8.60;94.85
71047;SHT31;58703;48.978;8.982;2022-09-17T05:03:52;8.59;94.53
71047;SHT31;58703;48.978;8.982;2022-09-17T05:06:18;8.54;94.62
71047;SHT31;58703;48.978;8.982;2022-09-17T05:08:43;8.54;94.66
71047;SHT31;58703;48.978;8.982;2022-09-17T05:11:09;8.53;94.54
71047;SHT31;58703;48.978;8.982;2022-09-17T05:13:36;8.49;94.63
71047;SHT31;58703;48.978;8.982;2022-09-17T05:16:02;8.67;93.34
71047;SHT31;58703;48.978;8.982;2022-09-17T05:18:27;8.63;93.67
71047;SHT31;58703;48.978;8.982;2022-09-17T05:20:53;8.57;94.08
71047;SHT31;58703;48.978;8.982;2022-09-17T05:23:19;8.53;94.44
71047;SHT31;58703;48.978;8.982;2022-09-17T05:25:45;8.59;93.83
71047;SHT31;58703;48.978;8.982;2022-09-17T05:28:11;8.59;94.15
71047;SHT31;58703;48.978;8.982;2022-09-17T05:30:37;8.57;94.16
71047;SHT31;58703;48.978;8.982;2022-09-17T05:33:05;8.63;93.83
71047;SHT31;58703;48.978;8.982;2022-09-17T05:35:33;8.63;93.73
71047;SHT31;58703;48.978;8.982;2022-09-17T05:38:03;8.68;93.68
71047;SHT31;58703;48.978;8.982;2022-09-17T05:40:30;8.78;93.05
71047;SHT31;58703;48.978;8.982;2022-09-17T05:43:01;8.85;93.16
71047;SHT31;58703;48.978;8.982;2022-09-17T05:45:28;8.87;93.00
71047;SHT31;58703;48.978;8.982;2022-09-17T05:47:55;8.88;93.02
71047;SHT31;58703;48.978;8.982;2022-09-17T05:50:22;8.87;92.48
71047;SHT31;58703;48.978;8.982;2022-09-17T05:52:49;8.92;92.58
71047;SHT31;58703;48.978;8.982;2022-09-17T05:55:17;8.91;92.49
71047;SHT31;58703;48.978;8.982;2022-09-17T05:57:43;8.94;91.96
71047;SHT31;58703;48.978;8.982;2022-09-17T06:00:10;9.01;91.60
71047;SHT31;58703;48.978;8.982;2022-09-17T06:02:37;9.05;91.18
71047;SHT31;58703;48.978;8.982;2022-09-17T06:05:04;9.14;91.67
71047;SHT31;58703;48.978;8.982;2022-09-17T06:07:37;9.14;91.46
71047;SHT31;58703;48.978;8.982;2022-09-17T06:10:04;9.16;91.53
71047;SHT31;58703;48.978;8.982;2022-09-17T06:12:31;9.19;91.03
71047;SHT31;58703;48.978;8.982;2022-09-17T06:15:02;9.21;91.03
71047;SHT31;58703;48.978;8.982;2022-09-17T06:17:32;9.25;90.42
71047;SHT31;58703;48.978;8.982;2022-09-17T06:19:59;9.21;90.14
71047;SHT31;58703;48.978;8.982;2022-09-17T06:22:26;9.26;90.85
71047;SHT31;58703;48.978;8.982;2022-09-17T06:24:53;9.24;90.53
71047;SHT31;58703;48.978;8.982;2022-09-17T06:27:19;9.26;91.07
71047;SHT31;58703;48.978;8.982;2022-09-17T06:29:44;9.22;91.07
71047;SHT31;58703;48.978;8.982;2022-09-17T06:32:11;9.14;91.79
71047;SHT31;58703;48.978;8.982;2022-09-17T06:34:40;9.15;91.59
71047;SHT31;58703;48.978;8.982;2022-09-17T06:37:07;9.10;91.93
71047;SHT31;58703;48.978;8.982;2022-09-17T06:39:33;9.01;92.99
71047;SHT31;58703;48.978;8.982;2022-09-17T06:42:00;8.92;93.52
71047;SHT31;58703;48.978;8.982;2022-09-17T06:44:26;8.87;94.98
71047;SHT31;58703;48.978;8.982;2022-09-17T06:46:51;8.77;95.34
71047;SHT31;58703;48.978;8.982;2022-09-17T06:49:17;8.80;95.57
71047;SHT31;58703;48.978;8.982;2022-09-17T06:51:43;8.70;95.26
71047;SHT31;58703;48.978;8.982;2022-09-17T06:54:09;8.67;95.48
71047;SHT31;58703;48.978;8.982;2022-09-17T06:56:35;8.70;96.23
71047;SHT31;58703;48.978;8.982;2022-09-17T06:59:01;8.74;96.48
71047;SHT31;58703;48.978;8.982;2022-09-17T07:01:27;8.73;96.01
71047;SHT31;58703;48.978;8.982;2022-09-17T07:03:53;8.67;96.58
71047;SHT31;58703;48.978;8.982;2022-09-17T07:06:19;8.63;96.47
71047;SHT31;58703;48.978;8.982;2022-09-17T07:08:45;8.64;97.54
71047;SHT31;58703;48.978;8.982;2022-09-17T07:11:12;8.57;97.35
71047;SHT31;58703;48.978;8.982;2022-09-17T07:13:38;8.53;97.95
71047;SHT31;58703;48.978;8.982;2022-09-17T07:16:04;8.64;97.49
71047;SHT31;58703;48.978;8.982;2022-09-17T07:18:31;8.60;97.15
71047;SHT31;58703;48.978;8.982;2022-09-17T07:21:06;8.65;96.63
71047;SHT31;58703;48.978;8.982;2022-09-17T07:23:34;8.75;96.56
71047;SHT31;58703;48.978;8.982;2022-09-17T07:26:03;8.84;96.73
71047;SHT31;58703;48.978;8.982;2022-09-17T07:28:30;8.91;96.81
71047;SHT31;58703;48.978;8.982;2022-09-17T07:31:02;8.91;96.58
71047;SHT31;58703;48.978;8.982;2022-09-17T07:33:29;8.92;96.78
71047;SHT31;58703;48.978;8.982;2022-09-17T07:36:01;8.94;95.56
71047;SHT31;58703;48.978;8.982;2022-09-17T07:38:29;9.07;94.51
71047;SHT31;58703;48.978;8.982;2022-09-17T07:41:01;9.22;95.47
71047;SHT31;58703;48.978;8.982;2022-09-17T07:43:30;9.26;95.53
71047;SHT31;58703;48.978;8.982;2022-09-17T07:45:57;9.29;95.77
71047;SHT31;58703;48.978;8.982;2022-09-17T07:48:24;9.29;95.51
71047;SHT31;58703;48.978;8.982;2022-09-17T07:50:51;9.18;93.81
71047;SHT31;58703;48.978;8.982;2022-09-17T07:53:17;9.38;94.63
71047;SHT31;58703;48.978;8.982;2022-09-17T07:55:54;9.60;94.85
71047;SHT31;58703;48.978;8.982;2022-09-17T07:58:29;9.96;94.82
71047;SHT31;58703;48.978;8.982;2022-09-17T08:01:03;10.16;93.31
71047;SHT31;58703;48.978;8.982;2022-09-17T08:03:35;10.13;92.60
71047;SHT31;58703;48.978;8.982;2022-09-17T08:06:08;10.04;92.23
71047;SHT31;58703;48.978;8.982;2022-09-17T08:08:34;10.10;92.65
71047;SHT31;58703;48.978;8.982;2022-09-17T08:11:03;9.90;91.97
71047;SHT31;58703;48.978;8.982;2022-09-17T08:13:30;10.18;91.95
71047;SHT31;58703;48.978;8.982;2022-09-17T08:15:58;10.37;90.84
71047;SHT31;58703;48.978;8.982;2022-09-17T08:18:26;10.31;91.38
71047;SHT31;58703;48.978;8.982;2022-09-17T08:20:57;10.54;91.41
71047;SHT31;58703;48.978;8.982;2022-09-17T08:23:25;10.82;89.90
71047;SHT31;58703;48.978;8.982;2022-09-17T08:26:00;10.92;90.31
71047;SHT31;58703;48.978;8.982;2022-09-17T08:28:46;11.06;89.52
71047;SHT31;58703;48.978;8.982;2022-09-17T08:31:14;11.20;88.26
71047;SHT31;58703;48.978;8.982;2022-09-17T08:33:41;11.47;88.04
71047;SHT31;58703;48.978;8.982;2022-09-17T08:36:10;11.91;86.93
71047;SHT31;58703;48.978;8.982;2022-09-17T08:38:37;11.22;86.00
71047;SHT31;58703;48.978;8.982;2022-09-17T08:46:24;11.36;88.31
71047;SHT31;58703;48.978;8.982;2022-09-17T08:55:22;10.72;87.93
71047;SHT31;58703;48.978;8.982;2022-09-17T09:00:54;10.81;87.13
71047;SHT31;58703;48.978;8.982;2022-09-17T09:04:04;11.02;86.40
71047;SHT31;58703;48.978;8.982;2022-09-17T09:06:45;11.20;87.53
71047;SHT31;58703;48.978;8.982;2022-09-17T09:09:14;11.27;86.57
71047;SHT31;58703;48.978;8.982;2022-09-17T09:11:41;11.53;85.91
71047;SHT31;58703;48.978;8.982;2022-09-17T09:14:20;11.57;86.50
71047;SHT31;58703;48.978;8.982;2022-09-17T09:16:48;11.43;85.62
71047;SHT31;58703;48.978;8.982;2022-09-17T09:24:44;11.47;85.61
71047;SHT31;58703;48.978;8.982;2022-09-17T09:27:42;11.54;86.16
71047;SHT31;58703;48.978;8.982;2022-09-17T09:30:13;11.60;86.86
71047;SHT31;58703;48.978;8.982;2022-09-17T09:35:33;12.04;85.93
71047;SHT31;58703;48.978;8.982;2022-09-17T09:38:21;11.67;85.11
71047;SHT31;58703;48.978;8.982;2022-09-17T09:41:10;11.69;86.50
71047;SHT31;58703;48.978;8.982;2022-09-17T09:46:49;11.88;84.24
71047;SHT31;58703;48.978;8.982;2022-09-17T10:00:39;12.17;80.26
71047;SHT31;58703;48.978;8.982;2022-09-17T10:03:27;12.28;80.39
71047;SHT31;58703;48.978;8.982;2022-09-17T10:06:05;12.05;80.74
71047;SHT31;58703;48.978;8.982;2022-09-17T10:08:36;12.26;82.87
71047;SHT31;58703;48.978;8.982;2022-09-17T10:11:27;12.63;81.27
71047;SHT31;58703;48.978;8.982;2022-09-17T10:14:22;13.60;77.05
71047;SHT31;58703;48.978;8.982;2022-09-17T10:17:17;13.58;75.44
71047;SHT31;58703;48.978;8.982;2022-09-17T10:19:46;14.28;74.28
71047;SHT31;58703;48.978;8.982;2022-09-17T10:22:35;13.81;76.18
71047;SHT31;58703;48.978;8.982;2022-09-17T10:25:05;13.30;78.48
71047;SHT31;58703;48.978;8.982;2022-09-17T10:27:35;13.07;78.57
71047;SHT31;58703;48.978;8.982;2022-09-17T10:32:38;12.96;75.34
71047;SHT31;58703;48.978;8.982;2022-09-17T10:37:46;12.97;78.24
71047;SHT31;58703;48.978;8.982;2022-09-17T10:42:45;12.97;74.68
71047;SHT31;58703;48.978;8.982;2022-09-17T10:45:27;13.62;73.95
71047;SHT31;58703;48.978;8.982;2022-09-17T10:47:54;14.05;72.64
71047;SHT31;58703;48.978;8.982;2022-09-17T10:50:31;13.95;72.68
71047;SHT31;58703;48.978;8.982;2022-09-17T10:53:14;14.09;73.92
71047;SHT31;58703;48.978;8.982;2022-09-17T10:55:46;14.13;73.02
71047;SHT31;58703;48.978;8.982;2022-09-17T11:15:05;13.26;75.40
71047;SHT31;58703;48.978;8.982;2022-09-17T11:20:23;13.28;76.03
71047;SHT31;58703;48.978;8.982;2022-09-17T11:26:15;13.00;77.86
71047;SHT31;58703;48.978;8.982;2022-09-17T11:31:47;12.44;82.43
71047;SHT31;58703;48.978;8.982;2022-09-17T11:37:37;12.48;79.06
71047;SHT31;58703;48.978;8.982;2022-09-17T11:42:41;12.24;79.94
71047;SHT31;58703;48.978;8.982;2022-09-17T11:45:27;11.99;79.70
71047;SHT31;58703;48.978;8.982;2022-09-17T11:48:00;11.73;83.23
71047;SHT31;58703;48.978;8.982;2022-09-17T11:50:39;11.50;86.21
71047;SHT31;58703;48.978;8.982;2022-09-17T11:53:29;11.70;84.12
71047;SHT31;58703;48.978;8.982;2022-09-17T11:59:14;11.69;87.89
71047;SHT31;58703;48.978;8.982;2022-09-17T12:07:14;11.54;88.63
71047;SHT31;58703;48.978;8.982;2022-09-17T12:09:49;11.77;86.54
71047;SHT31;58703;48.978;8.982;2022-09-17T12:12:21;12.04;90.65
71047;SHT31;58703;48.978;8.982;2022-09-17T12:15:19;11.98;88.96
71047;SHT31;58703;48.978;8.982;2022-09-17T12:20:35;11.87;90.99
71047;SHT31;58703;48.978;8.982;2022-09-17T12:23:08;11.78;88.57
71047;SHT31;58703;48.978;8.982;2022-09-17T12:25:51;11.39;85.69
71047;SHT31;58703;48.978;8.982;2022-09-17T12:28:27;11.69;89.38
71047;SHT31;58703;48.978;8.982;2022-09-17T12:31:04;11.90;87.28
71047;SHT31;58703;48.978;8.982;2022-09-17T12:33:45;11.78;87.69
71047;SHT31;58703;48.978;8.982;2022-09-17T12:39:01;11.87;86.28
71047;SHT31;58703;48.978;8.982;2022-09-17T12:42:02;12.70;87.99
71047;SHT31;58703;48.978;8.982;2022-09-17T12:58:31;12.79;81.24
71047;SHT31;58703;48.978;8.982;2022-09-17T13:20:33;13.16;78.50
71047;SHT31;58703;48.978;8.982;2022-09-17T13:23:02;13.34;77.41
71047;SHT31;58703;48.978;8.982;2022-09-17T13:25:29;13.09;78.48
71047;SHT31;58703;48.978;8.982;2022-09-17T13:28:05;13.07;78.17
71047;SHT31;58703;48.978;8.982;2022-09-17T13:33:51;13.24;79.17
71047;SHT31;58703;48.978;8.982;2022-09-17T13:36:40;12.95;79.95
71047;SHT31;58703;48.978;8.982;2022-09-17T13:39:42;12.77;80.08
71047;SHT31;58703;48.978;8.982;2022-09-17T13:44:51;12.99;80.37
71047;SHT31;58703;48.978;8.982;2022-09-17T13:47:21;13.55;78.80
71047;SHT31;58703;48.978;8.982;2022-09-17T13:49:52;13.55;77.40
71047;SHT31;58703;48.978;8.982;2022-09-17T13:52:31;12.90;79.46
71047;SHT31;58703;48.978;8.982;2022-09-17T13:54:57;13.03;79.24
71047;SHT31;58703;48.978;8.982;2022-09-17T13:57:24;13.31;79.02
71047;SHT31;58703;48.978;8.982;2022-09-17T13:59:56;14.33;76.24
71047;SHT31;58703;48.978;8.982;2022-09-17T14:02:35;14.73;73.09
71047;SHT31;58703;48.978;8.982;2022-09-17T14:05:24;15.96;70.39
71047;SHT31;58703;48.978;8.982;2022-09-17T14:08:12;16.64;66.98
71047;SHT31;58703;48.978;8.982;2022-09-17T14:10:42;16.82;65.31
71047;SHT31;58703;48.978;8.982;2022-09-17T14:15:58;16.00;68.22
71047;SHT31;58703;48.978;8.982;2022-09-17T14:20:54;16.64;65.54
71047;SHT31;58703;48.978;8.982;2022-09-17T14:23:31;16.63;66.05
71047;SHT31;58703;48.978;8.982;2022-09-17T14:25:58;15.31;68.68
71047;SHT31;58703;48.978;8.982;2022-09-17T14:28:39;15.59;69.85
71047;SHT31;58703;48.978;8.982;2022-09-17T14:31:14;14.88;70.59
71047;SHT31;58703;48.978;8.982;2022-09-17T14:33:43;15.01;71.45
71047;SHT31;58703;48.978;8.982;2022-09-17T14:36:13;14.49;72.27
71047;SHT31;58703;48.978;8.982;2022-09-17T14:38:49;14.21;72.86
71047;SHT31;58703;48.978;8.982;2022-09-17T14:41:32;14.88;73.90
71047;SHT31;58703;48.978;8.982;2022-09-17T14:47:07;14.97;72.94
71047;SHT31;58703;48.978;8.982;2022-09-17T14:49:37;15.65;70.99
71047;SHT31;58703;48.978;8.982;2022-09-17T14:52:25;15.48;66.52
71047;SHT31;58703;48.978;8.982;2022-09-17T14:55:22;15.88;64.13
71047;SHT31;58703;48.978;8.982;2022-09-17T14:58:27;16.14;65.40
71047;SHT31;58703;48.978;8.982;2022-09-17T15:00:54;16.06;65.89
71047;SHT31;58703;48.978;8.982;2022-09-17T15:03:21;16.54;65.17
71047;SHT31;58703;48.978;8.982;2022-09-17T15:05:47;15.59;67.43
71047;SHT31;58703;48.978;8.982;2022-09-17T15:08:21;15.41;67.65
71047;SHT31;58703;48.978;8.982;2022-09-17T15:13:26;14.02;71.55
71047;SHT31;58703;48.978;8.982;2022-09-17T15:16:04;13.89;71.89
71047;SHT31;58703;48.978;8.982;2022-09-17T15:18:43;13.98;72.66
71047;SHT31;58703;48.978;8.982;2022-09-17T15:21:40;14.29;71.57
71047;SHT31;58703;48.978;8.982;2022-09-17T15:24:20;14.05;71.81
71047;SHT31;58703;48.978;8.982;2022-09-17T15:26:52;14.47;72.82
71047;SHT31;58703;48.978;8.982;2022-09-17T15:29:24;14.05;74.97
71047;SHT31;58703;48.978;8.982;2022-09-17T15:31:51;13.95;76.80
71047;SHT31;58703;48.978;8.982;2022-09-17T15:34:16;13.74;77.40
71047;SHT31;58703;48.978;8.982;2022-09-17T15:37:05;15.55;69.18
71047;SHT31;58703;48.978;8.982;2022-09-17T15:39:38;15.76;68.08
71047;SHT31;58703;48.978;8.982;2022-09-17T15:42:04;15.65;70.04
71047;SHT31;58703;48.978;8.982;2022-09-17T15:44:30;16.39;67.70
71047;SHT31;58703;48.978;8.982;2022-09-17T15:47:35;14.88;71.12
71047;SHT31;58703;48.978;8.982;2022-09-17T15:50:23;14.02;73.84
71047;SHT31;58703;48.978;8.982;2022-09-17T15:52:50;14.01;74.79
71047;SHT31;58703;48.978;8.982;2022-09-17T15:55:35;14.19;72.64
71047;SHT31;58703;48.978;8.982;2022-09-17T15:58:04;14.16;72.81
71047;SHT31;58703;48.978;8.982;2022-09-17T16:00:30;15.14;69.20
71047;SHT31;58703;48.978;8.982;2022-09-17T16:02:56;14.55;69.00
71047;SHT31;58703;48.978;8.982;2022-09-17T16:07:50;13.78;70.46
71047;SHT31;58703;48.978;8.982;2022-09-17T16:10:16;13.68;72.32
71047;SHT31;58703;48.978;8.982;2022-09-17T16:12:42;13.62;70.19
71047;SHT31;58703;48.978;8.982;2022-09-17T16:15:08;13.86;70.85
71047;SHT31;58703;48.978;8.982;2022-09-17T16:17:47;14.05;69.76
71047;SHT31;58703;48.978;8.982;2022-09-17T16:20:24;14.21;68.80
71047;SHT31;58703;48.978;8.982;2022-09-17T16:22:51;14.18;70.08
71047;SHT31;58703;48.978;8.982;2022-09-17T16:25:18;13.75;72.02
71047;SHT31;58703;48.978;8.982;2022-09-17T16:27:46;13.46;72.00
71047;SHT31;58703;48.978;8.982;2022-09-17T16:30:17;13.37;72.68
71047;SHT31;58703;48.978;8.982;2022-09-17T16:32:43;13.20;73.29
71047;SHT31;58703;48.978;8.982;2022-09-17T16:35:17;13.11;72.78
71047;SHT31;58703;48.978;8.982;2022-09-17T16:37:46;13.03;73.82
71047;SHT31;58703;48.978;8.982;2022-09-17T16:40:12;13.00;73.56
71047;SHT31;58703;48.978;8.982;2022-09-17T16:42:38;12.93;73.88
71047;SHT31;58703;48.978;8.982;2022-09-17T16:45:05;12.89;74.27
71047;SHT31;58703;48.978;8.982;2022-09-17T16:47:35;12.85;74.78
71047;SHT31;58703;48.978;8.982;2022-09-17T16:50:03;12.83;75.32
71047;SHT31;58703;48.978;8.982;2022-09-17T16:52:29;12.70;77.10
71047;SHT31;58703;48.978;8.982;2022-09-17T16:54:55;10.37;85.04
71047;SHT31;58703;48.978;8.982;2022-09-17T16:57:20;9.79;90.03
71047;SHT31;58703;48.978;8.982;2022-09-17T16:59:46;9.97;93.01
71047;SHT31;58703;48.978;8.982;2022-09-17T17:02:11;10.03;94.74
71047;SHT31;58703;48.978;8.982;2022-09-17T17:04:36;10.13;92.98
71047;SHT31;58703;48.978;8.982;2022-09-17T17:07:02;10.09;94.34
71047;SHT31;58703;48.978;8.982;2022-09-17T17:09:27;10.04;94.54
71047;SHT31;58703;48.978;8.982;2022-09-17T17:11:53;10.07;93.81
71047;SHT31;58703;48.978;8.982;2022-09-17T17:14:18;10.17;92.11
71047;SHT31;58703;48.978;8.982;2022-09-17T17:16:44;10.18;93.35
71047;SHT31;58703;48.978;8.982;2022-09-17T17:19:10;10.18;94.15
71047;SHT31;58703;48.978;8.982;2022-09-17T17:21:36;10.33;93.33
71047;SHT31;58703;48.978;8.982;2022-09-17T17:24:02;10.38;93.67
71047;SHT31;58703;48.978;8.982;2022-09-17T17:26:29;10.36;94.54
71047;SHT31;58703;48.978;8.982;2022-09-17T17:28:54;10.52;93.49
71047;SHT31;58703;48.978;8.982;2022-09-17T17:31:20;10.58;94.03
71047;SHT31;58703;48.978;8.982;2022-09-17T17:33:45;10.64;94.01
71047;SHT31;58703;48.978;8.982;2022-09-17T17:36:11;10.71;92.72
71047;SHT31;58703;48.978;8.982;2022-09-17T17:38:36;10.69;92.48
71047;SHT31;58703;48.978;8.982;2022-09-17T17:41:08;10.72;92.82
71047;SHT31;58703;48.978;8.982;2022-09-17T17:43:35;10.69;93.23
71047;SHT31;58703;48.978;8.982;2022-09-17T17:46:01;10.71;92.48
71047;SHT31;58703;48.978;8.982;2022-09-17T17:48:28;10.79;91.70
71047;SHT31;58703;48.978;8.982;2022-09-17T17:50:54;10.69;92.60
71047;SHT31;58703;48.978;8.982;2022-09-17T17:53:19;10.78;90.87
71047;SHT31;58703;48.978;8.982;2022-09-17T17:55:59;10.76;91.02
71047;SHT31;58703;48.978;8.982;2022-09-17T17:58:24;10.58;93.30
71047;SHT31;58703;48.978;8.982;2022-09-17T18:00:51;10.55;93.20
71047;SHT31;58703;48.978;8.982;2022-09-17T18:03:16;10.48;94.23
71047;SHT31;58703;48.978;8.982;2022-09-17T18:05:42;10.55;92.86
71047;SHT31;58703;48.978;8.982;2022-09-17T18:08:07;10.51;93.41
71047;SHT31;58703;48.978;8.982;2022-09-17T18:10:33;10.47;94.45
71047;SHT31;58703;48.978;8.982;2022-09-17T18:12:59;10.50;93.67
71047;SHT31;58703;48.978;8.982;2022-09-17T18:15:25;10.52;93.44
71047;SHT31;58703;48.978;8.982;2022-09-17T18:17:51;10.42;94.34
71047;SHT31;58703;48.978;8.982;2022-09-17T18:20:18;10.38;94.92
71047;SHT31;58703;48.978;8.982;2022-09-17T18:22:43;10.41;94.13
71047;SHT31;58703;48.978;8.982;2022-09-17T18:25:09;10.36;95.03
71047;SHT31;58703;48.978;8.982;2022-09-17T18:27:34;10.33;95.14
71047;SHT31;58703;48.978;8.982;2022-09-17T18:30:00;10.31;95.25
71047;SHT31;58703;48.978;8.982;2022-09-17T18:32:26;10.38;95.27
71047;SHT31;58703;48.978;8.982;2022-09-17T18:34:51;10.27;95.34
71047;SHT31;58703;48.978;8.982;2022-09-17T18:37:16;10.22;96.34
71047;SHT31;58703;48.978;8.982;2022-09-17T18:39:42;10.20;95.77
71047;SHT31;58703;48.978;8.982;2022-09-17T18:42:08;10.22;95.07
71047;SHT31;58703;48.978;8.982;2022-09-17T18:44:33;10.24;95.24
71047;SHT31;58703;48.978;8.982;2022-09-17T18:46:59;10.27;94.12
71047;SHT31;58703;48.978;8.982;2022-09-17T18:49:24;10.30;93.56
71047;SHT31;58703;48.978;8.982;2022-09-17T18:51:50;10.41;91.16
71047;SHT31;58703;48.978;8.982;2022-09-17T18:54:15;10.25;92.15